Terminal Aerodrome Forecast
Issued by NWS

Home | Current Version | Previous Version | Text Only | Print | Product List | Glossary On
Versions: 1 2 3 4 5 6 7 8 9 10 11 12 13 14 15 16 17 18 19 20 21 22 23 24 25 26
000
FTUS41 KRLX 241132
TAFCKB
TAF
KCKB 241132Z 2412/2512 31004KT 6SM -RA BKN007 OVC013
     FM241600 28009KT P6SM OVC013
     FM250500 25007KT P6SM BKN021
     FM250900 23005KT P6SM BKN035
     FM251100 21005KT P6SM SCT120=

USA.gov is the U.S. government's official web portal to all federal, state and local government web resources and services.